sensor_id;sensor_type;location;lat;lon;timestamp;temperature;humidity
46336;DHT22;31365;48.858;8.530;2024-01-27T00:00:20;2.50;99.90
46336;DHT22;31365;48.858;8.530;2024-01-27T00:02:49;2.50;99.90
46336;DHT22;31365;48.858;8.530;2024-01-27T00:05:18;2.40;99.90
46336;DHT22;31365;48.858;8.530;2024-01-27T00:07:48;2.50;99.90
46336;DHT22;31365;48.858;8.530;2024-01-27T00:10:16;2.40;99.90
46336;DHT22;31365;48.858;8.530;2024-01-27T00:12:45;2.40;99.90
46336;DHT22;31365;48.858;8.530;2024-01-27T00:15:13;2.40;99.90
46336;DHT22;31365;48.858;8.530;2024-01-27T00:17:41;2.30;99.90
46336;DHT22;31365;48.858;8.530;2024-01-27T00:20:11;2.30;99.90
46336;DHT22;31365;48.858;8.530;2024-01-27T00:22:40;2.20;99.90
46336;DHT22;31365;48.858;8.530;2024-01-27T00:25:10;2.30;99.90
46336;DHT22;31365;48.858;8.530;2024-01-27T00:27:38;2.20;99.90
46336;DHT22;31365;48.858;8.530;2024-01-27T00:30:07;2.20;99.90
46336;DHT22;31365;48.858;8.530;2024-01-27T00:32:38;2.20;99.90
46336;DHT22;31365;48.858;8.530;2024-01-27T00:35:07;2.20;99.90
46336;DHT22;31365;48.858;8.530;2024-01-27T00:37:38;2.10;99.90
46336;DHT22;31365;48.858;8.530;2024-01-27T00:40:10;2.10;99.90
46336;DHT22;31365;48.858;8.530;2024-01-27T00:42:40;2.10;99.90
46336;DHT22;31365;48.858;8.530;2024-01-27T00:45:09;2.00;99.90
46336;DHT22;31365;48.858;8.530;2024-01-27T00:47:37;2.00;99.90
46336;DHT22;31365;48.858;8.530;2024-01-27T00:50:07;2.00;99.90
46336;DHT22;31365;48.858;8.530;2024-01-27T00:52:36;2.00;99.90
46336;DHT22;31365;48.858;8.530;2024-01-27T00:55:05;2.00;99.90
46336;DHT22;31365;48.858;8.530;2024-01-27T00:57:37;1.90;99.90
46336;DHT22;31365;48.858;8.530;2024-01-27T01:00:07;1.90;99.90
46336;DHT22;31365;48.858;8.530;2024-01-27T01:02:37;1.90;99.90
46336;DHT22;31365;48.858;8.530;2024-01-27T01:05:08;1.90;99.90
46336;DHT22;31365;48.858;8.530;2024-01-27T01:07:36;1.90;99.90
46336;DHT22;31365;48.858;8.530;2024-01-27T01:10:06;1.90;99.90
46336;DHT22;31365;48.858;8.530;2024-01-27T01:12:36;2.00;99.90
46336;DHT22;31365;48.858;8.530;2024-01-27T01:15:06;1.90;99.90
46336;DHT22;31365;48.858;8.530;2024-01-27T01:17:35;1.90;99.90
46336;DHT22;31365;48.858;8.530;2024-01-27T01:20:04;2.00;99.90
46336;DHT22;31365;48.858;8.530;2024-01-27T01:22:33;1.90;99.90
46336;DHT22;31365;48.858;8.530;2024-01-27T01:25:01;1.90;99.90
46336;DHT22;31365;48.858;8.530;2024-01-27T01:27:30;1.90;99.90
46336;DHT22;31365;48.858;8.530;2024-01-27T01:30:00;1.90;99.90
46336;DHT22;31365;48.858;8.530;2024-01-27T01:32:28;1.90;99.90
46336;DHT22;31365;48.858;8.530;2024-01-27T01:34:57;1.80;99.90
46336;DHT22;31365;48.858;8.530;2024-01-27T01:37:25;1.80;99.90
46336;DHT22;31365;48.858;8.530;2024-01-27T01:39:53;1.80;99.90
46336;DHT22;31365;48.858;8.530;2024-01-27T01:42:22;1.80;99.90
46336;DHT22;31365;48.858;8.530;2024-01-27T01:44:52;1.80;99.90
46336;DHT22;31365;48.858;8.530;2024-01-27T01:47:22;1.80;99.90
46336;DHT22;31365;48.858;8.530;2024-01-27T01:49:50;1.70;99.90
46336;DHT22;31365;48.858;8.530;2024-01-27T01:52:21;1.70;99.90
46336;DHT22;31365;48.858;8.530;2024-01-27T01:54:50;1.70;99.90
46336;DHT22;31365;48.858;8.530;2024-01-27T01:57:18;1.70;99.90
46336;DHT22;31365;48.858;8.530;2024-01-27T01:59:47;1.70;99.90
46336;DHT22;31365;48.858;8.530;2024-01-27T02:02:15;1.70;99.90
46336;DHT22;31365;48.858;8.530;2024-01-27T02:04:45;1.70;99.90
46336;DHT22;31365;48.858;8.530;2024-01-27T02:07:14;1.70;99.90
46336;DHT22;31365;48.858;8.530;2024-01-27T02:09:43;1.70;99.90
46336;DHT22;31365;48.858;8.530;2024-01-27T02:12:12;1.70;99.90
46336;DHT22;31365;48.858;8.530;2024-01-27T02:14:40;1.70;99.90
46336;DHT22;31365;48.858;8.530;2024-01-27T02:17:09;1.60;99.90
46336;DHT22;31365;48.858;8.530;2024-01-27T02:19:37;1.60;99.90
46336;DHT22;31365;48.858;8.530;2024-01-27T02:22:07;1.50;99.90
46336;DHT22;31365;48.858;8.530;2024-01-27T02:24:38;1.50;99.90
46336;DHT22;31365;48.858;8.530;2024-01-27T02:27:07;1.50;99.90
46336;DHT22;31365;48.858;8.530;2024-01-27T02:29:35;1.50;99.90
46336;DHT22;31365;48.858;8.530;2024-01-27T02:32:05;1.50;99.90
46336;DHT22;31365;48.858;8.530;2024-01-27T02:34:33;1.50;99.90
46336;DHT22;31365;48.858;8.530;2024-01-27T02:37:02;1.50;99.90
46336;DHT22;31365;48.858;8.530;2024-01-27T02:39:33;1.50;99.90
46336;DHT22;31365;48.858;8.530;2024-01-27T02:42:03;1.50;99.90
46336;DHT22;31365;48.858;8.530;2024-01-27T02:44:32;1.50;99.90
46336;DHT22;31365;48.858;8.530;2024-01-27T02:47:01;1.50;99.90
46336;DHT22;31365;48.858;8.530;2024-01-27T02:49:29;1.50;99.90
46336;DHT22;31365;48.858;8.530;2024-01-27T02:51:58;1.50;99.90
46336;DHT22;31365;48.858;8.530;2024-01-27T02:54:27;1.60;99.90
46336;DHT22;31365;48.858;8.530;2024-01-27T02:56:55;1.60;99.90
46336;DHT22;31365;48.858;8.530;2024-01-27T02:59:25;1.60;99.90
46336;DHT22;31365;48.858;8.530;2024-01-27T03:01:53;1.60;99.90
46336;DHT22;31365;48.858;8.530;2024-01-27T03:04:22;1.60;99.90
46336;DHT22;31365;48.858;8.530;2024-01-27T03:06:51;1.60;99.90
46336;DHT22;31365;48.858;8.530;2024-01-27T03:09:19;1.50;99.90
46336;DHT22;31365;48.858;8.530;2024-01-27T03:11:48;1.50;99.90
46336;DHT22;31365;48.858;8.530;2024-01-27T03:14:36;1.50;99.90
46336;DHT22;31365;48.858;8.530;2024-01-27T03:17:07;1.50;99.90
46336;DHT22;31365;48.858;8.530;2024-01-27T03:19:36;1.60;99.90
46336;DHT22;31365;48.858;8.530;2024-01-27T03:22:04;1.60;99.90
46336;DHT22;31365;48.858;8.530;2024-01-27T03:24:33;1.60;99.90
46336;DHT22;31365;48.858;8.530;2024-01-27T03:27:02;1.60;99.90
46336;DHT22;31365;48.858;8.530;2024-01-27T03:29:31;1.60;99.90
46336;DHT22;31365;48.858;8.530;2024-01-27T03:32:01;1.60;99.90
46336;DHT22;31365;48.858;8.530;2024-01-27T03:34:29;1.60;99.90
46336;DHT22;31365;48.858;8.530;2024-01-27T03:36:58;1.50;99.90
46336;DHT22;31365;48.858;8.530;2024-01-27T03:39:26;1.50;99.90
46336;DHT22;31365;48.858;8.530;2024-01-27T03:41:55;1.60;99.90
46336;DHT22;31365;48.858;8.530;2024-01-27T03:44:24;1.60;99.90
46336;DHT22;31365;48.858;8.530;2024-01-27T03:46:52;1.60;99.90
46336;DHT22;31365;48.858;8.530;2024-01-27T03:49:22;1.60;99.90
46336;DHT22;31365;48.858;8.530;2024-01-27T03:51:51;1.60;99.90
46336;DHT22;31365;48.858;8.530;2024-01-27T03:54:19;1.50;99.90
46336;DHT22;31365;48.858;8.530;2024-01-27T03:56:48;1.50;99.90
46336;DHT22;31365;48.858;8.530;2024-01-27T03:59:16;1.60;99.90
46336;DHT22;31365;48.858;8.530;2024-01-27T04:01:45;1.50;99.90
46336;DHT22;31365;48.858;8.530;2024-01-27T04:04:13;1.50;99.90
46336;DHT22;31365;48.858;8.530;2024-01-27T04:06:43;1.50;99.90
46336;DHT22;31365;48.858;8.530;2024-01-27T04:09:11;1.50;99.90
46336;DHT22;31365;48.858;8.530;2024-01-27T04:11:40;1.50;99.90
46336;DHT22;31365;48.858;8.530;2024-01-27T04:14:09;1.50;99.90
46336;DHT22;31365;48.858;8.530;2024-01-27T04:16:38;1.40;99.90
46336;DHT22;31365;48.858;8.530;2024-01-27T04:19:07;1.40;99.90
46336;DHT22;31365;48.858;8.530;2024-01-27T04:21:35;1.40;99.90
46336;DHT22;31365;48.858;8.530;2024-01-27T04:24:06;1.40;99.90
46336;DHT22;31365;48.858;8.530;2024-01-27T04:26:35;1.40;99.90
46336;DHT22;31365;48.858;8.530;2024-01-27T04:29:03;1.40;99.90
46336;DHT22;31365;48.858;8.530;2024-01-27T04:31:31;1.30;99.90
46336;DHT22;31365;48.858;8.530;2024-01-27T04:34:03;1.30;99.90
46336;DHT22;31365;48.858;8.530;2024-01-27T04:36:31;1.30;99.90
46336;DHT22;31365;48.858;8.530;2024-01-27T04:39:01;1.30;99.90
46336;DHT22;31365;48.858;8.530;2024-01-27T04:41:31;1.30;99.90
46336;DHT22;31365;48.858;8.530;2024-01-27T04:43:59;1.30;99.90
46336;DHT22;31365;48.858;8.530;2024-01-27T04:46:28;1.20;99.90
46336;DHT22;31365;48.858;8.530;2024-01-27T04:48:56;1.30;99.90
46336;DHT22;31365;48.858;8.530;2024-01-27T04:51:25;1.20;99.90
46336;DHT22;31365;48.858;8.530;2024-01-27T04:53:53;1.20;99.90
46336;DHT22;31365;48.858;8.530;2024-01-27T04:56:22;1.20;99.90
46336;DHT22;31365;48.858;8.530;2024-01-27T04:58:52;1.20;99.90
46336;DHT22;31365;48.858;8.530;2024-01-27T05:01:20;1.20;99.90
46336;DHT22;31365;48.858;8.530;2024-01-27T05:03:49;1.20;99.90
46336;DHT22;31365;48.858;8.530;2024-01-27T05:06:18;1.20;99.90
46336;DHT22;31365;48.858;8.530;2024-01-27T05:08:47;1.20;99.90
46336;DHT22;31365;48.858;8.530;2024-01-27T05:11:16;1.30;99.90
46336;DHT22;31365;48.858;8.530;2024-01-27T05:13:54;1.30;99.90
46336;DHT22;31365;48.858;8.530;2024-01-27T05:16:23;1.40;99.90
46336;DHT22;31365;48.858;8.530;2024-01-27T05:18:52;1.40;99.90
46336;DHT22;31365;48.858;8.530;2024-01-27T05:21:21;1.40;99.90
46336;DHT22;31365;48.858;8.530;2024-01-27T05:23:50;1.40;99.90
46336;DHT22;31365;48.858;8.530;2024-01-27T05:26:19;1.40;99.90
46336;DHT22;31365;48.858;8.530;2024-01-27T05:28:47;1.40;99.90
46336;DHT22;31365;48.858;8.530;2024-01-27T05:31:17;1.40;99.90
46336;DHT22;31365;48.858;8.530;2024-01-27T05:33:46;1.40;99.90
46336;DHT22;31365;48.858;8.530;2024-01-27T05:36:15;1.40;99.90
46336;DHT22;31365;48.858;8.530;2024-01-27T05:38:44;1.40;99.90
46336;DHT22;31365;48.858;8.530;2024-01-27T05:41:12;1.40;99.90
46336;DHT22;31365;48.858;8.530;2024-01-27T05:43:41;1.40;99.90
46336;DHT22;31365;48.858;8.530;2024-01-27T05:46:09;1.40;99.90
46336;DHT22;31365;48.858;8.530;2024-01-27T05:48:39;1.40;99.90
46336;DHT22;31365;48.858;8.530;2024-01-27T05:51:08;1.40;99.90
46336;DHT22;31365;48.858;8.530;2024-01-27T05:53:37;1.40;99.90
46336;DHT22;31365;48.858;8.530;2024-01-27T05:56:05;1.40;99.90
46336;DHT22;31365;48.858;8.530;2024-01-27T05:58:34;1.30;99.90
46336;DHT22;31365;48.858;8.530;2024-01-27T06:01:03;1.30;99.90
46336;DHT22;31365;48.858;8.530;2024-01-27T06:03:32;1.30;99.90
46336;DHT22;31365;48.858;8.530;2024-01-27T06:06:02;1.30;99.90
46336;DHT22;31365;48.858;8.530;2024-01-27T06:08:31;1.30;99.90
46336;DHT22;31365;48.858;8.530;2024-01-27T06:11:00;1.30;99.90
46336;DHT22;31365;48.858;8.530;2024-01-27T06:13:30;1.30;99.90
46336;DHT22;31365;48.858;8.530;2024-01-27T06:16:00;1.30;99.90
46336;DHT22;31365;48.858;8.530;2024-01-27T06:18:28;1.30;99.90
46336;DHT22;31365;48.858;8.530;2024-01-27T06:20:57;1.30;99.90
46336;DHT22;31365;48.858;8.530;2024-01-27T06:23:30;1.30;99.90
46336;DHT22;31365;48.858;8.530;2024-01-27T06:25:58;1.30;99.90
46336;DHT22;31365;48.858;8.530;2024-01-27T06:28:26;1.30;99.90
46336;DHT22;31365;48.858;8.530;2024-01-27T06:30:55;1.20;99.90
46336;DHT22;31365;48.858;8.530;2024-01-27T06:33:24;1.10;99.90
46336;DHT22;31365;48.858;8.530;2024-01-27T06:35:52;1.10;99.90
46336;DHT22;31365;48.858;8.530;2024-01-27T06:38:21;1.10;99.90
46336;DHT22;31365;48.858;8.530;2024-01-27T06:40:51;1.10;99.90
46336;DHT22;31365;48.858;8.530;2024-01-27T06:43:19;1.00;99.90
46336;DHT22;31365;48.858;8.530;2024-01-27T06:45:48;1.00;99.90
46336;DHT22;31365;48.858;8.530;2024-01-27T06:48:16;1.10;99.90
46336;DHT22;31365;48.858;8.530;2024-01-27T06:50:45;1.10;99.90
46336;DHT22;31365;48.858;8.530;2024-01-27T06:53:13;1.10;99.90
46336;DHT22;31365;48.858;8.530;2024-01-27T06:55:42;1.00;99.90
46336;DHT22;31365;48.858;8.530;2024-01-27T06:58:12;1.00;99.90
46336;DHT22;31365;48.858;8.530;2024-01-27T07:00:40;1.00;99.90
46336;DHT22;31365;48.858;8.530;2024-01-27T07:03:09;1.00;99.90
46336;DHT22;31365;48.858;8.530;2024-01-27T07:05:40;1.00;99.90
46336;DHT22;31365;48.858;8.530;2024-01-27T07:08:09;1.00;99.90
46336;DHT22;31365;48.858;8.530;2024-01-27T07:10:37;1.00;99.90
46336;DHT22;31365;48.858;8.530;2024-01-27T07:13:06;1.00;99.90
46336;DHT22;31365;48.858;8.530;2024-01-27T07:15:36;1.00;99.90
46336;DHT22;31365;48.858;8.530;2024-01-27T07:18:05;1.00;99.90
46336;DHT22;31365;48.858;8.530;2024-01-27T07:20:35;1.00;99.90
46336;DHT22;31365;48.858;8.530;2024-01-27T07:23:04;1.00;99.90
46336;DHT22;31365;48.858;8.530;2024-01-27T07:25:33;1.00;99.90
46336;DHT22;31365;48.858;8.530;2024-01-27T07:28:03;0.90;99.90
46336;DHT22;31365;48.858;8.530;2024-01-27T07:30:32;0.90;99.90
46336;DHT22;31365;48.858;8.530;2024-01-27T07:33:02;0.90;99.90
46336;DHT22;31365;48.858;8.530;2024-01-27T07:35:31;0.90;99.90
46336;DHT22;31365;48.858;8.530;2024-01-27T07:37:59;0.90;99.90
46336;DHT22;31365;48.858;8.530;2024-01-27T07:40:28;0.80;99.90
46336;DHT22;31365;48.858;8.530;2024-01-27T07:42:57;0.70;99.90
46336;DHT22;31365;48.858;8.530;2024-01-27T07:45:25;0.60;99.90
46336;DHT22;31365;48.858;8.530;2024-01-27T07:47:54;0.60;99.90
46336;DHT22;31365;48.858;8.530;2024-01-27T07:50:28;0.70;99.90
46336;DHT22;31365;48.858;8.530;2024-01-27T07:52:57;0.70;99.90
46336;DHT22;31365;48.858;8.530;2024-01-27T07:55:26;0.70;99.90
46336;DHT22;31365;48.858;8.530;2024-01-27T07:57:54;0.80;99.90
46336;DHT22;31365;48.858;8.530;2024-01-27T08:00:23;0.90;99.90
46336;DHT22;31365;48.858;8.530;2024-01-27T08:02:51;1.00;99.90
46336;DHT22;31365;48.858;8.530;2024-01-27T08:05:20;1.10;99.90
46336;DHT22;31365;48.858;8.530;2024-01-27T08:07:50;1.10;99.90
46336;DHT22;31365;48.858;8.530;2024-01-27T08:10:19;1.10;99.90
46336;DHT22;31365;48.858;8.530;2024-01-27T08:12:48;1.20;99.90
46336;DHT22;31365;48.858;8.530;2024-01-27T08:15:16;1.30;99.90
46336;DHT22;31365;48.858;8.530;2024-01-27T08:17:44;1.40;99.90
46336;DHT22;31365;48.858;8.530;2024-01-27T08:20:36;1.50;99.90
46336;DHT22;31365;48.858;8.530;2024-01-27T08:23:05;1.60;99.90
46336;DHT22;31365;48.858;8.530;2024-01-27T08:25:35;1.70;99.90
46336;DHT22;31365;48.858;8.530;2024-01-27T08:28:04;1.70;99.90
46336;DHT22;31365;48.858;8.530;2024-01-27T08:30:34;1.80;99.90
46336;DHT22;31365;48.858;8.530;2024-01-27T08:33:05;1.90;99.90
46336;DHT22;31365;48.858;8.530;2024-01-27T08:35:34;2.00;99.90
46336;DHT22;31365;48.858;8.530;2024-01-27T08:38:02;2.10;99.90
46336;DHT22;31365;48.858;8.530;2024-01-27T08:40:34;2.20;99.90
46336;DHT22;31365;48.858;8.530;2024-01-27T08:43:03;2.20;99.90
46336;DHT22;31365;48.858;8.530;2024-01-27T08:45:32;2.30;99.90
46336;DHT22;31365;48.858;8.530;2024-01-27T08:48:01;2.30;99.90
46336;DHT22;31365;48.858;8.530;2024-01-27T08:50:30;2.50;99.90
46336;DHT22;31365;48.858;8.530;2024-01-27T08:52:59;2.50;99.90
46336;DHT22;31365;48.858;8.530;2024-01-27T08:55:28;2.50;99.90
46336;DHT22;31365;48.858;8.530;2024-01-27T08:57:58;2.50;99.90
46336;DHT22;31365;48.858;8.530;2024-01-27T09:00:26;2.50;99.90
46336;DHT22;31365;48.858;8.530;2024-01-27T09:02:55;2.60;99.90
46336;DHT22;31365;48.858;8.530;2024-01-27T09:05:24;2.70;99.90
46336;DHT22;31365;48.858;8.530;2024-01-27T09:07:55;2.80;99.90
46336;DHT22;31365;48.858;8.530;2024-01-27T09:10:23;2.90;99.90
46336;DHT22;31365;48.858;8.530;2024-01-27T09:12:52;3.00;99.90
46336;DHT22;31365;48.858;8.530;2024-01-27T09:15:21;3.10;99.90
46336;DHT22;31365;48.858;8.530;2024-01-27T09:17:50;3.10;99.90
46336;DHT22;31365;48.858;8.530;2024-01-27T09:20:19;3.30;99.90
46336;DHT22;31365;48.858;8.530;2024-01-27T09:22:48;3.30;99.90
46336;DHT22;31365;48.858;8.530;2024-01-27T09:25:17;3.40;99.90
46336;DHT22;31365;48.858;8.530;2024-01-27T09:27:46;3.50;99.90
46336;DHT22;31365;48.858;8.530;2024-01-27T09:30:15;3.60;99.90
46336;DHT22;31365;48.858;8.530;2024-01-27T09:32:46;3.70;99.90
46336;DHT22;31365;48.858;8.530;2024-01-27T09:35:14;3.70;99.90
46336;DHT22;31365;48.858;8.530;2024-01-27T09:37:43;3.80;99.90
46336;DHT22;31365;48.858;8.530;2024-01-27T09:40:13;3.80;99.90
46336;DHT22;31365;48.858;8.530;2024-01-27T09:42:46;3.90;99.90
46336;DHT22;31365;48.858;8.530;2024-01-27T09:45:20;4.00;99.90
46336;DHT22;31365;48.858;8.530;2024-01-27T09:47:53;4.10;99.90
46336;DHT22;31365;48.858;8.530;2024-01-27T09:50:25;4.20;99.90
46336;DHT22;31365;48.858;8.530;2024-01-27T09:52:53;4.30;99.90
46336;DHT22;31365;48.858;8.530;2024-01-27T09:55:23;4.40;99.90
46336;DHT22;31365;48.858;8.530;2024-01-27T09:57:51;4.40;99.90
46336;DHT22;31365;48.858;8.530;2024-01-27T10:00:21;4.50;99.90
46336;DHT22;31365;48.858;8.530;2024-01-27T10:02:52;4.60;99.90
46336;DHT22;31365;48.858;8.530;2024-01-27T10:05:24;4.60;99.90
46336;DHT22;31365;48.858;8.530;2024-01-27T10:07:52;4.70;99.90
46336;DHT22;31365;48.858;8.530;2024-01-27T10:10:24;4.80;99.90
46336;DHT22;31365;48.858;8.530;2024-01-27T10:12:55;4.90;99.90
46336;DHT22;31365;48.858;8.530;2024-01-27T10:15:27;5.00;99.90
46336;DHT22;31365;48.858;8.530;2024-01-27T10:18:06;5.20;99.90
46336;DHT22;31365;48.858;8.530;2024-01-27T10:20:35;5.30;99.90
46336;DHT22;31365;48.858;8.530;2024-01-27T10:23:12;5.50;99.90
46336;DHT22;31365;48.858;8.530;2024-01-27T10:25:41;5.70;99.90
46336;DHT22;31365;48.858;8.530;2024-01-27T10:28:11;5.90;99.90
46336;DHT22;31365;48.858;8.530;2024-01-27T10:30:39;6.10;99.90
46336;DHT22;31365;48.858;8.530;2024-01-27T10:33:11;6.40;99.90
46336;DHT22;31365;48.858;8.530;2024-01-27T10:35:42;6.70;99.90
46336;DHT22;31365;48.858;8.530;2024-01-27T10:38:10;7.00;99.90
46336;DHT22;31365;48.858;8.530;2024-01-27T10:40:40;7.30;99.90
46336;DHT22;31365;48.858;8.530;2024-01-27T10:43:09;7.60;99.90
46336;DHT22;31365;48.858;8.530;2024-01-27T10:45:41;7.90;99.90
46336;DHT22;31365;48.858;8.530;2024-01-27T10:48:11;8.30;99.90
46336;DHT22;31365;48.858;8.530;2024-01-27T10:50:41;8.50;99.90
46336;DHT22;31365;48.858;8.530;2024-01-27T10:53:21;8.90;99.90
46336;DHT22;31365;48.858;8.530;2024-01-27T10:55:55;9.40;99.90
46336;DHT22;31365;48.858;8.530;2024-01-27T10:58:27;9.80;99.90
46336;DHT22;31365;48.858;8.530;2024-01-27T11:00:59;10.20;99.90
46336;DHT22;31365;48.858;8.530;2024-01-27T11:03:31;10.70;99.90
46336;DHT22;31365;48.858;8.530;2024-01-27T11:06:01;11.10;99.90
46336;DHT22;31365;48.858;8.530;2024-01-27T11:08:31;11.40;99.90
46336;DHT22;31365;48.858;8.530;2024-01-27T11:11:01;11.70;99.90
46336;DHT22;31365;48.858;8.530;2024-01-27T11:13:31;12.20;99.90
46336;DHT22;31365;48.858;8.530;2024-01-27T11:16:01;12.50;99.90
46336;DHT22;31365;48.858;8.530;2024-01-27T11:18:31;12.70;99.90
46336;DHT22;31365;48.858;8.530;2024-01-27T11:21:00;13.10;99.90
46336;DHT22;31365;48.858;8.530;2024-01-27T11:23:33;13.40;99.90
46336;DHT22;31365;48.858;8.530;2024-01-27T11:26:04;13.50;99.90
46336;DHT22;31365;48.858;8.530;2024-01-27T11:28:34;13.90;99.90
46336;DHT22;31365;48.858;8.530;2024-01-27T11:31:04;14.20;99.90
46336;DHT22;31365;48.858;8.530;2024-01-27T11:33:41;14.70;99.90
46336;DHT22;31365;48.858;8.530;2024-01-27T11:36:19;14.90;99.90
46336;DHT22;31365;48.858;8.530;2024-01-27T11:38:50;15.20;99.90
46336;DHT22;31365;48.858;8.530;2024-01-27T11:41:24;15.40;99.90
46336;DHT22;31365;48.858;8.530;2024-01-27T11:43:55;15.60;99.90
46336;DHT22;31365;48.858;8.530;2024-01-27T11:46:25;15.60;99.90
46336;DHT22;31365;48.858;8.530;2024-01-27T11:48:56;16.00;99.90
46336;DHT22;31365;48.858;8.530;2024-01-27T11:51:25;16.30;99.90
46336;DHT22;31365;48.858;8.530;2024-01-27T11:53:54;16.50;99.90
46336;DHT22;31365;48.858;8.530;2024-01-27T11:56:23;17.20;99.90
46336;DHT22;31365;48.858;8.530;2024-01-27T11:58:52;17.40;99.90
46336;DHT22;31365;48.858;8.530;2024-01-27T12:01:20;17.60;99.90
46336;DHT22;31365;48.858;8.530;2024-01-27T12:03:49;17.80;99.90
46336;DHT22;31365;48.858;8.530;2024-01-27T12:06:20;17.80;99.90
46336;DHT22;31365;48.858;8.530;2024-01-27T12:08:52;18.00;99.90
46336;DHT22;31365;48.858;8.530;2024-01-27T12:11:22;18.30;99.90
46336;DHT22;31365;48.858;8.530;2024-01-27T12:13:51;18.70;99.90
46336;DHT22;31365;48.858;8.530;2024-01-27T12:16:22;19.00;99.90
46336;DHT22;31365;48.858;8.530;2024-01-27T12:18:54;19.30;99.90
46336;DHT22;31365;48.858;8.530;2024-01-27T12:21:24;19.40;99.90
46336;DHT22;31365;48.858;8.530;2024-01-27T12:23:54;19.60;99.90
46336;DHT22;31365;48.858;8.530;2024-01-27T12:26:27;19.60;99.90
46336;DHT22;31365;48.858;8.530;2024-01-27T12:28:57;19.60;99.90
46336;DHT22;31365;48.858;8.530;2024-01-27T12:31:27;19.80;99.20
46336;DHT22;31365;48.858;8.530;2024-01-27T12:33:57;19.80;98.70
46336;DHT22;31365;48.858;8.530;2024-01-27T12:36:29;19.60;99.20
46336;DHT22;31365;48.858;8.530;2024-01-27T12:38:58;19.80;99.10
46336;DHT22;31365;48.858;8.530;2024-01-27T12:41:29;20.10;98.20
46336;DHT22;31365;48.858;8.530;2024-01-27T12:43:59;20.00;98.10
46336;DHT22;31365;48.858;8.530;2024-01-27T12:46:28;18.60;97.70
46336;DHT22;31365;48.858;8.530;2024-01-27T12:48:57;17.30;99.30
46336;DHT22;31365;48.858;8.530;2024-01-27T12:51:26;15.90;99.90
46336;DHT22;31365;48.858;8.530;2024-01-27T12:54:02;14.80;99.90
46336;DHT22;31365;48.858;8.530;2024-01-27T12:56:31;13.80;99.90
46336;DHT22;31365;48.858;8.530;2024-01-27T12:59:04;13.00;99.90
46336;DHT22;31365;48.858;8.530;2024-01-27T13:01:34;12.30;99.90
46336;DHT22;31365;48.858;8.530;2024-01-27T13:04:03;11.80;99.90
46336;DHT22;31365;48.858;8.530;2024-01-27T13:06:32;11.40;99.90
46336;DHT22;31365;48.858;8.530;2024-01-27T13:09:03;11.10;99.90
46336;DHT22;31365;48.858;8.530;2024-01-27T13:11:32;10.80;99.90
46336;DHT22;31365;48.858;8.530;2024-01-27T13:14:01;10.60;99.90
46336;DHT22;31365;48.858;8.530;2024-01-27T13:16:30;10.50;99.90
46336;DHT22;31365;48.858;8.530;2024-01-27T13:18:58;10.30;99.90
46336;DHT22;31365;48.858;8.530;2024-01-27T13:21:27;10.20;99.90
46336;DHT22;31365;48.858;8.530;2024-01-27T13:23:55;10.10;99.90
46336;DHT22;31365;48.858;8.530;2024-01-27T13:26:25;10.00;99.90
46336;DHT22;31365;48.858;8.530;2024-01-27T13:28:54;9.90;99.90
46336;DHT22;31365;48.858;8.530;2024-01-27T13:31:23;9.80;99.90
46336;DHT22;31365;48.858;8.530;2024-01-27T13:33:52;9.60;99.90
46336;DHT22;31365;48.858;8.530;2024-01-27T13:36:20;9.60;99.90
46336;DHT22;31365;48.858;8.530;2024-01-27T13:38:49;9.50;99.90
46336;DHT22;31365;48.858;8.530;2024-01-27T13:41:18;9.40;99.90
46336;DHT22;31365;48.858;8.530;2024-01-27T13:43:48;9.40;99.90
46336;DHT22;31365;48.858;8.530;2024-01-27T13:46:17;9.40;99.90
46336;DHT22;31365;48.858;8.530;2024-01-27T13:48:51;9.30;99.90
46336;DHT22;31365;48.858;8.530;2024-01-27T13:51:19;9.30;99.90
46336;DHT22;31365;48.858;8.530;2024-01-27T13:53:48;9.30;99.90
46336;DHT22;31365;48.858;8.530;2024-01-27T13:56:17;9.30;99.90
46336;DHT22;31365;48.858;8.530;2024-01-27T13:58:48;9.30;99.90
46336;DHT22;31365;48.858;8.530;2024-01-27T14:01:16;9.20;99.90
46336;DHT22;31365;48.858;8.530;2024-01-27T14:03:46;9.10;99.90
46336;DHT22;31365;48.858;8.530;2024-01-27T14:06:15;9.10;99.90
46336;DHT22;31365;48.858;8.530;2024-01-27T14:08:45;9.10;99.90
46336;DHT22;31365;48.858;8.530;2024-01-27T14:11:13;9.00;99.90
46336;DHT22;31365;48.858;8.530;2024-01-27T14:13:42;9.10;99.90
46336;DHT22;31365;48.858;8.530;2024-01-27T14:16:12;9.20;99.90
46336;DHT22;31365;48.858;8.530;2024-01-27T14:18:40;9.10;99.90
46336;DHT22;31365;48.858;8.530;2024-01-27T14:21:10;9.10;99.90
46336;DHT22;31365;48.858;8.530;2024-01-27T14:23:39;9.20;99.90
46336;DHT22;31365;48.858;8.530;2024-01-27T14:26:07;9.20;99.90
46336;DHT22;31365;48.858;8.530;2024-01-27T14:28:42;9.20;99.90
46336;DHT22;31365;48.858;8.530;2024-01-27T14:31:13;9.20;99.90
46336;DHT22;31365;48.858;8.530;2024-01-27T14:33:42;9.10;99.90
46336;DHT22;31365;48.858;8.530;2024-01-27T14:36:11;9.00;99.90
46336;DHT22;31365;48.858;8.530;2024-01-27T14:38:42;9.00;99.90
46336;DHT22;31365;48.858;8.530;2024-01-27T14:41:11;9.00;99.90
46336;DHT22;31365;48.858;8.530;2024-01-27T14:43:40;9.00;99.90
46336;DHT22;31365;48.858;8.530;2024-01-27T14:46:08;8.90;99.90
46336;DHT22;31365;48.858;8.530;2024-01-27T14:48:39;8.80;99.90
46336;DHT22;31365;48.858;8.530;2024-01-27T14:51:10;8.80;99.90
46336;DHT22;31365;48.858;8.530;2024-01-27T14:53:40;8.70;99.90
46336;DHT22;31365;48.858;8.530;2024-01-27T14:56:08;8.70;99.90
46336;DHT22;31365;48.858;8.530;2024-01-27T14:58:38;8.60;99.90
46336;DHT22;31365;48.858;8.530;2024-01-27T15:01:07;8.60;99.90
46336;DHT22;31365;48.858;8.530;2024-01-27T15:03:35;8.50;99.90
46336;DHT22;31365;48.858;8.530;2024-01-27T15:06:07;8.40;99.90
46336;DHT22;31365;48.858;8.530;2024-01-27T15:08:36;8.30;99.90
46336;DHT22;31365;48.858;8.530;2024-01-27T15:11:05;8.20;99.90
46336;DHT22;31365;48.858;8.530;2024-01-27T15:13:33;8.10;99.90
46336;DHT22;31365;48.858;8.530;2024-01-27T15:16:02;8.00;99.90
46336;DHT22;31365;48.858;8.530;2024-01-27T15:18:31;7.90;99.90
46336;DHT22;31365;48.858;8.530;2024-01-27T15:21:01;7.80;99.90
46336;DHT22;31365;48.858;8.530;2024-01-27T15:23:31;7.80;99.90
46336;DHT22;31365;48.858;8.530;2024-01-27T15:26:01;7.70;99.90
46336;DHT22;31365;48.858;8.530;2024-01-27T15:28:31;7.70;99.90
46336;DHT22;31365;48.858;8.530;2024-01-27T15:30:59;7.60;99.90
46336;DHT22;31365;48.858;8.530;2024-01-27T15:33:27;7.60;99.90
46336;DHT22;31365;48.858;8.530;2024-01-27T15:35:57;7.50;99.90
46336;DHT22;31365;48.858;8.530;2024-01-27T15:38:25;7.40;99.90
46336;DHT22;31365;48.858;8.530;2024-01-27T15:40:55;7.30;99.90
46336;DHT22;31365;48.858;8.530;2024-01-27T15:43:25;7.30;99.90
46336;DHT22;31365;48.858;8.530;2024-01-27T15:45:55;7.20;99.90
46336;DHT22;31365;48.858;8.530;2024-01-27T15:48:24;7.20;99.90
46336;DHT22;31365;48.858;8.530;2024-01-27T15:50:54;7.10;99.90
46336;DHT22;31365;48.858;8.530;2024-01-27T15:53:23;7.00;99.90
46336;DHT22;31365;48.858;8.530;2024-01-27T15:55:51;7.00;99.90
46336;DHT22;31365;48.858;8.530;2024-01-27T15:58:21;6.90;99.90